createdAt,value
2019-03-06T00:01:35.727Z,95.95
2019-03-06T00:04:05.186Z,93.54
2019-03-06T00:06:34.532Z,94.17
2019-03-06T00:09:05.882Z,94.99
2019-03-06T00:11:35.206Z,95.46
2019-03-06T00:14:04.543Z,95.90
2019-03-06T00:16:33.942Z,96.36
2019-03-06T00:19:03.367Z,96.99
2019-03-06T00:21:32.716Z,97.65
2019-03-06T00:24:02.112Z,98.34
2019-03-06T00:26:31.451Z,98.63
2019-03-06T00:29:02.438Z,98.64
2019-03-06T00:31:31.824Z,98.23
2019-03-06T00:34:01.140Z,98.03
2019-03-06T00:36:31.811Z,98.04
2019-03-06T00:39:01.221Z,97.95
2019-03-06T00:41:35.981Z,97.64
2019-03-06T00:44:05.441Z,97.40
2019-03-06T00:46:34.770Z,97.89
2019-03-06T00:49:04.328Z,98.38
2019-03-06T00:51:33.680Z,98.75
2019-03-06T00:54:03.046Z,98.72
2019-03-06T00:56:32.455Z,98.59
2019-03-06T00:59:01.885Z,98.56
2019-03-06T01:01:31.223Z,99.01
2019-03-06T01:04:00.545Z,99.17
2019-03-06T01:06:29.884Z,99.14
2019-03-06T01:08:59.251Z,99.04
2019-03-06T01:11:28.822Z,99.13
2019-03-06T01:13:58.165Z,99.11
2019-03-06T01:16:27.517Z,98.80
2019-03-06T01:18:57.045Z,98.37
2019-03-06T01:21:26.392Z,98.12
2019-03-06T01:23:55.736Z,98.01
2019-03-06T01:26:25.103Z,97.95
2019-03-06T01:28:54.427Z,97.94
2019-03-06T01:31:24.002Z,97.46
2019-03-06T01:34:12.326Z,96.76
2019-03-06T01:37:03.615Z,95.82
2019-03-06T01:39:51.919Z,94.71
2019-03-06T01:42:30.181Z,94.73
2019-03-06T01:45:02.523Z,94.09
2019-03-06T01:47:31.910Z,93.21
2019-03-06T01:50:01.240Z,92.97
2019-03-06T01:52:30.595Z,92.81
2019-03-06T01:55:00.360Z,92.69
2019-03-06T01:57:29.743Z,92.72
2019-03-06T01:59:59.080Z,92.07
2019-03-06T02:02:28.414Z,91.69
2019-03-06T02:04:57.767Z,91.07
2019-03-06T02:07:27.411Z,91.47
2019-03-06T02:09:56.986Z,91.75
2019-03-06T02:12:26.532Z,91.90
2019-03-06T02:14:55.960Z,91.58
2019-03-06T02:17:25.271Z,91.69
2019-03-06T02:19:54.627Z,91.88
2019-03-06T02:22:23.986Z,91.81
2019-03-06T02:24:53.338Z,91.62
2019-03-06T02:27:22.683Z,91.26
2019-03-06T02:29:52.031Z,91.02
2019-03-06T02:32:21.410Z,90.35
2019-03-06T02:34:50.787Z,91.23
2019-03-06T02:37:20.164Z,91.57
2019-03-06T02:39:49.492Z,91.34
2019-03-06T02:42:18.857Z,91.16
2019-03-06T02:44:48.223Z,90.80
2019-03-06T02:47:17.602Z,90.95
2019-03-06T02:49:46.930Z,91.82
2019-03-06T02:52:16.269Z,93.89
2019-03-06T02:54:45.622Z,92.60
2019-03-06T02:57:15.012Z,87.69
2019-03-06T02:59:58.853Z,85.62
2019-03-06T03:02:42.334Z,85.67
2019-03-06T03:05:31.509Z,83.62
2019-03-06T03:08:00.935Z,79.87
2019-03-06T03:10:30.302Z,80.04
2019-03-06T03:13:00.134Z,80.95
2019-03-06T03:15:29.625Z,80.25
2019-03-06T03:17:59.032Z,78.91
2019-03-06T03:20:28.360Z,77.73
2019-03-06T03:22:57.740Z,78.09
2019-03-06T03:25:27.369Z,78.67
2019-03-06T03:27:56.721Z,77.91
2019-03-06T03:30:26.121Z,77.34
2019-03-06T03:32:55.511Z,76.39
2019-03-06T03:35:24.847Z,75.21
2019-03-06T03:37:54.237Z,76.44
2019-03-06T03:40:23.712Z,77.05
2019-03-06T03:42:53.350Z,75.75
2019-03-06T03:45:22.720Z,76.46
2019-03-06T03:47:52.077Z,76.47
2019-03-06T03:50:21.477Z,76.47
2019-03-06T03:52:50.862Z,75.42
2019-03-06T03:55:20.313Z,75.42
2019-03-06T03:57:49.647Z,75.77
2019-03-06T04:00:19.018Z,76.09
2019-03-06T04:02:48.505Z,74.54
2019-03-06T04:05:17.860Z,75.22
2019-03-06T04:07:47.214Z,78.05
2019-03-06T04:10:16.804Z,79.56
2019-03-06T04:12:46.198Z,81.20
2019-03-06T04:15:15.694Z,81.13
2019-03-06T04:17:45.061Z,82.28
2019-03-06T04:20:14.400Z,83.76
2019-03-06T04:22:43.776Z,83.90
2019-03-06T04:25:14.108Z,81.92
2019-03-06T04:27:43.457Z,82.38
2019-03-06T04:30:13.099Z,82.36
2019-03-06T04:32:42.478Z,83.40
2019-03-06T04:35:11.983Z,83.16
2019-03-06T04:37:41.361Z,82.82
2019-03-06T04:40:10.949Z,81.16
2019-03-06T04:42:40.426Z,80.64
2019-03-06T04:45:10.144Z,80.37
2019-03-06T04:47:41.850Z,79.71
2019-03-06T04:50:11.235Z,78.15
2019-03-06T04:52:40.570Z,78.96
2019-03-06T04:55:10.117Z,80.05
2019-03-06T04:57:39.454Z,83.45
2019-03-06T05:00:10.265Z,83.37
2019-03-06T05:02:39.635Z,83.26
2019-03-06T05:05:09.664Z,82.35
2019-03-06T05:07:39.013Z,81.08
2019-03-06T05:10:09.092Z,81.46
2019-03-06T05:12:38.470Z,81.79
2019-03-06T05:15:08.706Z,81.37
2019-03-06T05:18:00.289Z,81.94
2019-03-06T05:20:30.078Z,82.77
2019-03-06T05:22:59.445Z,84.60
2019-03-06T05:25:29.073Z,85.46
2019-03-06T05:27:58.464Z,83.96
2019-03-06T05:30:28.521Z,82.44
2019-03-06T05:32:59.003Z,80.88
2019-03-06T05:35:38.845Z,80.36
2019-03-06T05:38:17.599Z,79.92
2019-03-06T05:40:47.096Z,80.56
2019-03-06T05:43:16.495Z,81.18
2019-03-06T05:45:46.267Z,82.68
2019-03-06T05:48:15.690Z,83.90
2019-03-06T05:50:45.063Z,84.51
2019-03-06T05:53:14.518Z,83.86
2019-03-06T05:55:43.991Z,83.51
2019-03-06T05:58:13.565Z,83.38
2019-03-06T06:00:43.049Z,82.78
2019-03-06T06:03:15.010Z,81.99
2019-03-06T06:05:44.394Z,80.12
2019-03-06T06:08:13.737Z,79.07
2019-03-06T06:10:43.171Z,78.87
2019-03-06T06:13:12.581Z,79.44
2019-03-06T06:15:41.946Z,80.80
2019-03-06T06:18:11.295Z,81.05
2019-03-06T06:20:40.679Z,83.40
2019-03-06T06:23:31.768Z,84.57
2019-03-06T06:26:01.272Z,81.74
2019-03-06T06:28:30.626Z,79.04
2019-03-06T06:30:59.947Z,79.00
2019-03-06T06:33:29.318Z,79.13
2019-03-06T06:35:58.724Z,79.26
2019-03-06T06:38:28.137Z,79.23
2019-03-06T06:40:57.590Z,78.41
2019-03-06T06:43:26.976Z,78.20
2019-03-06T06:45:56.359Z,78.52
2019-03-06T06:48:26.805Z,76.49
2019-03-06T06:51:26.311Z,74.40
2019-03-06T06:54:13.049Z,72.50
2019-03-06T06:57:26.227Z,71.94
2019-03-06T07:00:21.489Z,73.16
2019-03-06T07:03:48.937Z,73.65
2019-03-06T07:06:40.085Z,73.74
2019-03-06T07:09:28.308Z,72.91
2019-03-06T07:12:28.913Z,72.48
2019-03-06T07:15:20.227Z,72.30
2019-03-06T07:18:04.782Z,71.39
2019-03-06T07:20:52.587Z,72.13
2019-03-06T07:23:38.689Z,73.06
2019-03-06T07:26:39.202Z,73.56
2019-03-06T07:29:21.313Z,75.52
2019-03-06T07:32:15.529Z,77.42
2019-03-06T07:35:39.519Z,77.53
2019-03-06T07:38:09.094Z,79.50
2019-03-06T07:40:56.718Z,80.84
2019-03-06T07:43:44.285Z,80.68
2019-03-06T07:46:36.268Z,80.83
2019-03-06T07:49:23.472Z,80.44
2019-03-06T07:52:17.698Z,78.99
2019-03-06T07:55:11.849Z,77.14
2019-03-06T07:58:16.746Z,75.28
2019-03-06T08:00:46.212Z,74.37
2019-03-06T08:03:43.571Z,74.75
2019-03-06T08:06:12.971Z,73.15
2019-03-06T08:08:42.716Z,73.04
2019-03-06T08:11:20.673Z,72.77
2019-03-06T08:13:58.748Z,73.24
2019-03-06T08:16:38.689Z,72.80
2019-03-06T08:19:18.156Z,72.15
2019-03-06T08:22:21.727Z,71.21
2019-03-06T08:25:03.453Z,71.66
2019-03-06T08:27:32.924Z,71.25
2019-03-06T08:30:02.565Z,71.41
2019-03-06T08:32:33.396Z,71.97
2019-03-06T08:35:02.801Z,69.67
2019-03-06T08:37:38.143Z,68.86
2019-03-06T08:40:08.015Z,68.67
2019-03-06T08:42:37.367Z,67.98
2019-03-06T08:45:07.929Z,69.57
2019-03-06T08:47:58.844Z,68.00
2019-03-06T08:50:47.140Z,67.58
2019-03-06T08:53:27.357Z,67.80
2019-03-06T08:56:09.942Z,67.33
2019-03-06T08:58:56.931Z,67.61
2019-03-06T09:01:59.710Z,67.33
2019-03-06T09:04:35.843Z,67.88
2019-03-06T09:07:36.757Z,69.03
2019-03-06T09:10:14.800Z,69.27
2019-03-06T09:12:48.830Z,71.06
2019-03-06T09:15:45.073Z,72.06
2019-03-06T09:18:30.296Z,71.93
2019-03-06T09:21:15.998Z,71.55
2019-03-06T09:24:25.879Z,69.64
2019-03-06T09:27:38.486Z,67.27
2019-03-06T09:30:35.813Z,68.31
2019-03-06T09:33:30.425Z,67.65
2019-03-06T09:36:30.775Z,67.50
2019-03-06T09:39:34.231Z,68.18
2019-03-06T09:42:21.244Z,69.40
2019-03-06T09:45:06.065Z,69.82
2019-03-06T09:47:41.212Z,69.22
2019-03-06T09:50:29.961Z,69.10
2019-03-06T09:53:17.073Z,68.96
2019-03-06T09:56:01.140Z,68.07
2019-03-06T09:58:49.632Z,67.70
2019-03-06T10:01:38.233Z,67.80
2019-03-06T10:04:32.566Z,67.87
2019-03-06T10:07:23.647Z,66.53
2019-03-06T10:10:10.740Z,63.89
2019-03-06T10:13:08.473Z,61.43
2019-03-06T10:15:59.921Z,57.40
2019-03-06T10:18:55.026Z,56.74
2019-03-06T10:21:25.736Z,55.39
2019-03-06T10:23:55.240Z,52.70
2019-03-06T10:26:24.779Z,52.52
2019-03-06T10:28:54.175Z,50.99
2019-03-06T10:31:23.958Z,48.96
2019-03-06T10:33:53.327Z,46.84
2019-03-06T10:36:22.709Z,46.40
2019-03-06T10:38:52.102Z,45.44
2019-03-06T10:41:21.728Z,45.46
2019-03-06T10:43:51.139Z,43.99
2019-03-06T10:46:20.554Z,41.68
2019-03-06T10:48:49.904Z,40.42
2019-03-06T10:51:19.481Z,38.77
2019-03-06T10:53:48.807Z,36.75
2019-03-06T10:56:18.349Z,37.02
2019-03-06T10:58:47.816Z,35.61
2019-03-06T11:01:17.841Z,35.90
2019-03-06T11:04:06.130Z,35.33
2019-03-06T11:06:35.797Z,34.15
2019-03-06T11:09:09.046Z,34.44
2019-03-06T11:11:38.528Z,33.77
2019-03-06T11:14:09.437Z,33.40
2019-03-06T11:16:38.946Z,34.77
2019-03-06T11:19:08.785Z,35.32
2019-03-06T11:21:38.343Z,36.10
2019-03-06T11:24:08.170Z,35.44
2019-03-06T11:26:38.637Z,34.81
2019-03-06T11:29:09.535Z,32.90
2019-03-06T11:31:39.521Z,33.08
2019-03-06T11:34:09.721Z,31.94
2019-03-06T11:36:39.380Z,32.57
2019-03-06T11:39:11.786Z,31.50
2019-03-06T11:41:41.313Z,30.14
2019-03-06T11:44:10.851Z,29.94
2019-03-06T11:46:40.218Z,30.96
2019-03-06T11:49:09.613Z,30.97
2019-03-06T11:51:39.865Z,31.26
2019-03-06T11:54:09.594Z,32.07
2019-03-06T11:56:39.500Z,33.37
2019-03-06T11:59:08.866Z,35.04
2019-03-06T12:01:47.600Z,35.76
2019-03-06T12:04:10.317Z,36.50
2019-03-06T12:06:39.683Z,36.32
2019-03-06T12:09:27.995Z,34.64
2019-03-06T12:11:58.036Z,34.20
2019-03-06T12:14:27.951Z,32.72
2019-03-06T12:16:57.325Z,32.34
2019-03-06T12:19:27.270Z,32.16
2019-03-06T12:21:57.337Z,32.60
2019-03-06T12:24:26.753Z,32.60
2019-03-06T12:26:56.135Z,32.09
2019-03-06T12:29:25.492Z,31.54
2019-03-06T12:31:54.997Z,30.68
2019-03-06T12:34:24.375Z,31.67
2019-03-06T12:36:54.200Z,31.29
2019-03-06T12:39:23.764Z,31.11
2019-03-06T12:41:54.270Z,29.77
2019-03-06T12:44:23.670Z,29.85
2019-03-06T12:46:54.986Z,30.08
2019-03-06T12:49:26.337Z,30.32
2019-03-06T12:51:55.741Z,29.77
2019-03-06T12:54:25.182Z,30.87
2019-03-06T12:56:54.519Z,31.06
2019-03-06T12:59:23.879Z,30.86
2019-03-06T13:01:53.381Z,29.97
2019-03-06T13:04:22.733Z,30.22
2019-03-06T13:06:57.359Z,30.51
2019-03-06T13:09:26.784Z,30.28
2019-03-06T13:11:56.191Z,30.24
2019-03-06T13:14:25.737Z,30.07
2019-03-06T13:16:56.267Z,30.68
2019-03-06T13:19:25.621Z,30.32
2019-03-06T13:21:54.967Z,29.83
2019-03-06T13:24:24.355Z,29.36
2019-03-06T13:26:53.814Z,29.15
2019-03-06T13:29:23.141Z,29.20
2019-03-06T13:31:52.526Z,29.05
2019-03-06T13:34:35.337Z,29.68
2019-03-06T13:37:04.708Z,30.26
2019-03-06T13:39:34.431Z,31.00
2019-03-06T13:42:03.824Z,31.04
2019-03-06T13:44:33.325Z,31.42
2019-03-06T13:47:03.073Z,31.29
2019-03-06T13:49:32.462Z,31.95
2019-03-06T13:52:01.873Z,32.45
2019-03-06T13:54:31.318Z,32.33
2019-03-06T13:57:00.808Z,32.29
2019-03-06T13:59:30.182Z,31.45
2019-03-06T14:01:59.706Z,30.90
2019-03-06T14:04:30.893Z,30.89
2019-03-06T14:07:00.296Z,30.90
2019-03-06T14:09:30.003Z,31.53
2019-03-06T14:11:59.383Z,31.07
2019-03-06T14:14:28.830Z,31.16
2019-03-06T14:16:58.755Z,31.14
2019-03-06T14:19:28.348Z,31.55
2019-03-06T14:21:57.706Z,31.82
2019-03-06T14:24:27.208Z,31.77
2019-03-06T14:26:56.591Z,32.16
2019-03-06T14:29:26.016Z,31.85
2019-03-06T14:31:55.422Z,31.89
2019-03-06T14:34:24.845Z,31.35
2019-03-06T14:36:54.634Z,31.74
2019-03-06T14:39:26.571Z,31.51
2019-03-06T14:41:56.385Z,31.84
2019-03-06T14:44:25.763Z,32.76
2019-03-06T14:46:55.194Z,32.79
2019-03-06T14:49:24.676Z,32.36
2019-03-06T14:51:54.277Z,31.62
2019-03-06T14:54:23.988Z,31.65
2019-03-06T14:56:53.329Z,31.49
2019-03-06T14:59:24.735Z,31.64
2019-03-06T15:01:54.097Z,32.02
2019-03-06T15:04:24.055Z,32.18
2019-03-06T15:06:53.475Z,32.08
2019-03-06T15:09:27.397Z,31.31
2019-03-06T15:11:56.789Z,31.37
2019-03-06T15:14:35.487Z,31.50
2019-03-06T15:16:58.268Z,31.69
2019-03-06T15:19:27.609Z,31.85
2019-03-06T15:21:57.029Z,32.20
2019-03-06T15:24:26.519Z,32.28
2019-03-06T15:26:55.921Z,32.34
2019-03-06T15:29:25.297Z,32.21
2019-03-06T15:31:54.933Z,32.29
2019-03-06T15:34:24.693Z,32.11
2019-03-06T15:36:54.204Z,32.20
2019-03-06T15:39:42.624Z,32.38
2019-03-06T15:42:10.158Z,32.25
2019-03-06T15:44:39.631Z,32.23
2019-03-06T15:47:09.070Z,32.30
2019-03-06T15:49:38.476Z,32.29
2019-03-06T15:52:10.339Z,32.12
2019-03-06T15:54:39.769Z,31.88
2019-03-06T15:57:10.152Z,32.02
2019-03-06T15:59:39.888Z,31.77
2019-03-06T16:02:09.330Z,31.92
2019-03-06T16:04:38.886Z,31.97
2019-03-06T16:07:08.490Z,31.86
2019-03-06T16:09:38.876Z,31.88
2019-03-06T16:12:08.250Z,31.99
2019-03-06T16:14:37.612Z,31.87
2019-03-06T16:17:07.098Z,31.98
2019-03-06T16:19:36.518Z,31.50
2019-03-06T16:22:06.203Z,31.66
2019-03-06T16:24:37.511Z,31.53
2019-03-06T16:27:06.689Z,31.41
2019-03-06T16:29:36.097Z,31.37
2019-03-06T16:32:05.554Z,31.54
2019-03-06T16:34:34.924Z,31.63
2019-03-06T16:37:04.568Z,32.07
2019-03-06T16:39:33.941Z,32.17
2019-03-06T16:42:03.392Z,31.88
2019-03-06T16:44:32.824Z,32.19
2019-03-06T16:47:06.728Z,32.29
2019-03-06T16:49:34.155Z,32.84
2019-03-06T16:52:03.663Z,32.90
2019-03-06T16:54:33.119Z,33.54
2019-03-06T16:57:02.533Z,33.05
2019-03-06T16:59:31.940Z,33.33
2019-03-06T17:02:01.842Z,33.53
2019-03-06T17:04:31.512Z,33.32
2019-03-06T17:07:01.359Z,33.60
2019-03-06T17:09:30.765Z,33.76
2019-03-06T17:12:00.519Z,33.20
2019-03-06T17:14:30.375Z,33.19
2019-03-06T17:16:59.754Z,33.40
2019-03-06T17:19:29.118Z,33.44
2019-03-06T17:21:58.505Z,33.58
2019-03-06T17:24:30.190Z,33.59
2019-03-06T17:26:59.701Z,33.67
2019-03-06T17:29:29.397Z,34.02
2019-03-06T17:31:59.510Z,34.32
2019-03-06T17:34:28.853Z,34.75
2019-03-06T17:36:58.232Z,35.26
2019-03-06T17:39:27.647Z,35.00
2019-03-06T17:41:57.124Z,35.54
2019-03-06T17:44:26.506Z,35.52
2019-03-06T17:46:56.107Z,35.68
2019-03-06T17:49:25.434Z,36.08
2019-03-06T17:51:54.800Z,37.02
2019-03-06T17:54:24.220Z,37.27
2019-03-06T17:56:53.630Z,37.07
2019-03-06T17:59:23.246Z,37.19
2019-03-06T18:01:53.558Z,37.53
2019-03-06T18:04:24.381Z,37.48
2019-03-06T18:06:53.859Z,37.78
2019-03-06T18:09:23.230Z,37.56
2019-03-06T18:11:52.673Z,37.36
2019-03-06T18:14:22.323Z,37.87
2019-03-06T18:16:51.804Z,38.09
2019-03-06T18:19:21.247Z,38.36
2019-03-06T18:21:50.694Z,38.56
2019-03-06T18:24:20.164Z,38.85
2019-03-06T18:26:49.554Z,38.68
2019-03-06T18:29:19.139Z,38.80
2019-03-06T18:31:48.578Z,39.38
2019-03-06T18:34:18.098Z,39.71
2019-03-06T18:36:47.952Z,39.76
2019-03-06T18:39:18.590Z,39.78
2019-03-06T18:41:48.482Z,40.46
2019-03-06T18:44:18.644Z,40.39
2019-03-06T18:46:48.136Z,40.52
2019-03-06T18:49:20.001Z,41.19
2019-03-06T18:51:49.416Z,40.48
2019-03-06T18:54:18.941Z,41.09
2019-03-06T18:56:48.686Z,41.36
2019-03-06T18:59:18.145Z,41.50
2019-03-06T19:01:47.610Z,42.38
2019-03-06T19:04:17.005Z,42.25
2019-03-06T19:06:46.843Z,42.09
2019-03-06T19:09:19.832Z,42.87
2019-03-06T19:11:49.244Z,43.84
2019-03-06T19:14:18.878Z,44.04
2019-03-06T19:16:51.248Z,44.39
2019-03-06T19:19:20.674Z,44.18
2019-03-06T19:21:50.184Z,44.45
2019-03-06T19:24:19.627Z,48.81
2019-03-06T19:26:49.011Z,47.11
2019-03-06T19:29:18.400Z,48.52
2019-03-06T19:31:47.775Z,45.32
2019-03-06T19:34:19.469Z,46.29
2019-03-06T19:36:48.880Z,47.11
2019-03-06T19:39:18.605Z,47.84
2019-03-06T19:41:48.017Z,48.40
2019-03-06T19:44:17.352Z,47.88
2019-03-06T19:46:46.841Z,47.91
2019-03-06T19:49:16.484Z,48.09
2019-03-06T19:51:51.426Z,48.08
2019-03-06T19:54:17.404Z,48.68
2019-03-06T19:56:47.088Z,48.09
2019-03-06T19:59:16.463Z,48.16
2019-03-06T20:01:45.863Z,47.98
2019-03-06T20:04:15.198Z,47.71
2019-03-06T20:06:44.601Z,48.56
2019-03-06T20:09:27.926Z,46.36
2019-03-06T20:11:57.456Z,47.05
2019-03-06T20:14:27.085Z,45.75
2019-03-06T20:16:56.657Z,45.50
2019-03-06T20:19:26.221Z,45.74
2019-03-06T20:21:55.609Z,46.17
2019-03-06T20:24:24.990Z,46.50
2019-03-06T20:26:54.490Z,46.43
2019-03-06T20:29:23.859Z,47.04
2019-03-06T20:31:53.246Z,47.73
2019-03-06T20:34:22.635Z,48.42
2019-03-06T20:36:53.268Z,49.06
2019-03-06T20:39:22.745Z,50.07
2019-03-06T20:41:52.551Z,50.53
2019-03-06T20:44:22.484Z,51.06
2019-03-06T20:46:53.638Z,51.37
2019-03-06T20:49:23.014Z,52.10
2019-03-06T20:51:52.833Z,51.88
2019-03-06T20:54:22.256Z,51.49
2019-03-06T20:56:51.654Z,51.59
2019-03-06T20:59:21.027Z,52.33
2019-03-06T21:01:50.462Z,52.02
2019-03-06T21:04:20.261Z,52.41
2019-03-06T21:06:50.028Z,53.29
2019-03-06T21:09:19.421Z,53.62
2019-03-06T21:11:48.973Z,52.90
2019-03-06T21:14:18.404Z,53.35
2019-03-06T21:16:47.870Z,53.70
2019-03-06T21:19:17.237Z,53.66
2019-03-06T21:21:46.595Z,54.92
2019-03-06T21:24:15.936Z,55.16
2019-03-06T21:26:45.453Z,55.03
2019-03-06T21:29:14.951Z,55.72
2019-03-06T21:31:44.307Z,55.58
2019-03-06T21:34:13.715Z,55.47
2019-03-06T21:36:44.883Z,55.24
2019-03-06T21:39:26.679Z,56.59
2019-03-06T21:41:56.039Z,56.96
2019-03-06T21:44:25.449Z,57.19
2019-03-06T21:46:54.860Z,56.85
2019-03-06T21:49:24.236Z,57.20
2019-03-06T21:51:53.599Z,56.61
2019-03-06T21:54:23.157Z,57.23
2019-03-06T21:56:52.500Z,57.77
2019-03-06T21:59:21.872Z,56.79
2019-03-06T22:01:51.227Z,57.58
2019-03-06T22:04:20.653Z,57.69
2019-03-06T22:06:50.061Z,57.29
2019-03-06T22:09:30.447Z,57.42
2019-03-06T22:11:59.835Z,57.39
2019-03-06T22:14:29.204Z,57.03
2019-03-06T22:17:01.320Z,56.42
2019-03-06T22:19:31.621Z,56.59
2019-03-06T22:22:01.400Z,58.01
2019-03-06T22:24:30.764Z,58.90
2019-03-06T22:27:00.114Z,59.38
2019-03-06T22:29:29.449Z,59.12
2019-03-06T22:31:58.867Z,58.81
2019-03-06T22:34:28.428Z,58.50
2019-03-06T22:36:57.795Z,58.83
2019-03-06T22:39:27.144Z,59.63
2019-03-06T22:41:56.480Z,59.82
2019-03-06T22:44:25.831Z,59.57
2019-03-06T22:46:55.262Z,59.85
2019-03-06T22:49:24.824Z,60.30
2019-03-06T22:51:54.252Z,59.47
2019-03-06T22:54:23.663Z,59.38
2019-03-06T22:56:53.063Z,59.50
2019-03-06T22:59:22.597Z,59.45
2019-03-06T23:01:53.358Z,59.07
2019-03-06T23:04:22.802Z,59.51
2019-03-06T23:06:52.238Z,59.16
2019-03-06T23:09:21.689Z,59.00
2019-03-06T23:11:51.210Z,59.10
2019-03-06T23:14:20.976Z,59.68
2019-03-06T23:16:50.903Z,60.35
2019-03-06T23:19:20.645Z,60.30
2019-03-06T23:21:50.047Z,60.21
2019-03-06T23:24:19.498Z,60.07
2019-03-06T23:26:48.946Z,60.00
2019-03-06T23:29:18.357Z,60.44
2019-03-06T23:31:50.498Z,61.37
2019-03-06T23:34:20.210Z,62.14
2019-03-06T23:36:52.640Z,59.19
2019-03-06T23:39:22.608Z,59.97
2019-03-06T23:41:52.214Z,60.55
2019-03-06T23:44:21.609Z,60.40
2019-03-06T23:46:50.953Z,60.51
2019-03-06T23:49:20.311Z,61.38
2019-03-06T23:51:52.695Z,62.39
2019-03-06T23:54:22.089Z,62.12
2019-03-06T23:56:51.635Z,61.31
2019-03-06T23:59:20.974Z,61.51
